createdAt,value
2022-12-03T00:06:39.815Z,98116.00
2022-12-03T00:13:32.772Z,98121.00
2022-12-03T00:20:39.249Z,98120.00
2022-12-03T00:24:34.633Z,98112.00
2022-12-03T00:31:38.624Z,98117.00
2022-12-03T00:38:43.869Z,98096.00
2022-12-03T00:45:35.106Z,98127.00
2022-12-03T00:52:42.746Z,98120.00
2022-12-03T00:56:49.546Z,98112.00
2022-12-03T01:03:41.014Z,98130.00
2022-12-03T01:10:36.556Z,98110.00
2022-12-03T01:17:43.447Z,98132.00
2022-12-03T01:35:57.159Z,98124.00
2022-12-03T01:42:52.017Z,98122.00
2022-12-03T01:49:51.594Z,98130.00
2022-12-03T02:08:36.165Z,98096.00
2022-12-03T02:13:47.398Z,98138.00
2022-12-03T02:21:26.130Z,98111.00
2022-12-03T02:28:26.957Z,98131.00
2022-12-03T02:35:45.389Z,98141.00
2022-12-03T02:50:54.577Z,98149.00
2022-12-03T03:01:40.695Z,98123.00
2022-12-03T03:08:52.226Z,98153.00
2022-12-03T03:15:51.224Z,98142.00
2022-12-03T03:19:42.071Z,98138.00
2022-12-03T03:34:05.013Z,98109.00
2022-12-03T03:41:23.646Z,98122.00
2022-12-03T03:52:45.507Z,98119.00
2022-12-03T03:59:33.423Z,98094.00
2022-12-03T04:06:37.322Z,98113.00
2022-12-03T04:17:11.622Z,98098.00
2022-12-03T04:48:15.564Z,98074.00
2022-12-03T04:52:21.100Z,98106.00
2022-12-03T05:08:42.039Z,98092.00
2022-12-03T05:16:43.232Z,98086.00
2022-12-03T05:23:59.433Z,98095.00
2022-12-03T05:31:12.976Z,98064.00
2022-12-03T05:42:05.125Z,98077.00
2022-12-03T05:44:43.986Z,98077.00
2022-12-03T05:51:31.758Z,98072.00
2022-12-03T05:59:43.865Z,98071.00
2022-12-03T06:12:18.496Z,98078.00
2022-12-03T06:19:11.962Z,98078.00
2022-12-03T06:26:00.669Z,98092.00
2022-12-03T06:33:14.986Z,98114.00
2022-12-03T06:39:58.369Z,98121.00
2022-12-03T06:46:50.930Z,98107.00
2022-12-03T06:53:42.091Z,98084.00
2022-12-03T07:00:33.006Z,98100.00
2022-12-03T07:28:01.734Z,98106.00
2022-12-03T07:35:17.458Z,98081.00
2022-12-03T07:42:07.303Z,98107.00
2022-12-03T08:05:25.628Z,98113.00
2022-12-03T08:12:46.216Z,98122.00
2022-12-03T08:20:03.338Z,98066.00
2022-12-03T08:27:20.607Z,98084.00
2022-12-03T08:34:33.860Z,98077.00
2022-12-03T08:37:49.462Z,98109.00
2022-12-03T08:45:02.719Z,98096.00
2022-12-03T08:52:10.959Z,98106.00
2022-12-03T08:59:46.967Z,98103.00
2022-12-03T09:03:46.649Z,98110.00
2022-12-03T09:10:30.272Z,98105.00
2022-12-03T09:17:20.225Z,98112.00
2022-12-03T09:24:16.278Z,98099.00
2022-12-03T09:38:25.769Z,98094.00
2022-12-03T09:45:30.072Z,98118.00
2022-12-03T09:52:26.918Z,98109.00
2022-12-03T09:59:18.696Z,98125.00
2022-12-03T10:10:26.579Z,98120.00
2022-12-03T10:24:43.443Z,98090.00
2022-12-03T10:36:19.439Z,98079.00
2022-12-03T10:43:34.699Z,98061.00
2022-12-03T10:47:36.622Z,98070.00
2022-12-03T10:54:49.796Z,98061.00
2022-12-03T11:06:31.213Z,98047.00
2022-12-03T11:17:12.245Z,98025.00
2022-12-03T11:46:07.288Z,98024.00
2022-12-03T12:16:40.162Z,97979.00
2022-12-03T12:20:44.230Z,97991.00
2022-12-03T12:27:39.697Z,97990.00
2022-12-03T12:34:57.437Z,97966.00
2022-12-03T12:46:46.718Z,97966.00
2022-12-03T12:50:05.439Z,97956.00
2022-12-03T12:57:09.721Z,97939.00
2022-12-03T13:04:16.624Z,97947.00
2022-12-03T13:11:05.966Z,97949.00
2022-12-03T13:26:00.488Z,97942.00
2022-12-03T13:36:58.024Z,97937.00
2022-12-03T13:48:28.740Z,97932.00
2022-12-03T13:52:29.638Z,97945.00
2022-12-03T13:59:26.462Z,97916.00
2022-12-03T14:06:30.180Z,97943.00
2022-12-03T14:13:35.670Z,97900.00
2022-12-03T14:20:30.956Z,97937.00
2022-12-03T14:27:58.968Z,97945.00
2022-12-03T14:31:54.023Z,97940.00
2022-12-03T14:47:16.934Z,97935.00
2022-12-03T15:10:12.226Z,97955.00
2022-12-03T15:17:38.219Z,97941.00
2022-12-03T15:28:53.356Z,97961.00
2022-12-03T15:43:14.403Z,97952.00
2022-12-03T15:46:11.841Z,97918.00
2022-12-03T15:57:56.261Z,97938.00
2022-12-03T16:05:01.327Z,97920.00
2022-12-03T16:12:03.050Z,97903.00
2022-12-03T16:19:19.407Z,97916.00
2022-12-03T16:23:26.913Z,97929.00
2022-12-03T16:30:35.862Z,97929.00
2022-12-03T16:37:32.769Z,97926.00
2022-12-03T16:49:16.024Z,97950.00
2022-12-03T17:04:56.396Z,97882.00
2022-12-03T17:11:57.820Z,97918.00
2022-12-03T17:30:30.214Z,97906.00
2022-12-03T17:37:22.291Z,97913.00
2022-12-03T17:49:08.076Z,97874.00
2022-12-03T18:03:56.118Z,97888.00
2022-12-03T18:08:11.666Z,97887.00
2022-12-03T18:15:39.977Z,97900.00
2022-12-03T18:19:31.880Z,97882.00
2022-12-03T18:26:28.798Z,97883.00
2022-12-03T18:33:40.920Z,97874.00
2022-12-03T18:37:48.157Z,97872.00
2022-12-03T18:48:55.735Z,97879.00
2022-12-03T18:55:58.242Z,97884.00
2022-12-03T18:58:59.327Z,97874.00
2022-12-03T19:02:00.969Z,97864.00
2022-12-03T19:08:57.672Z,97865.00
2022-12-03T19:24:22.033Z,97844.00
2022-12-03T19:27:46.351Z,97864.00
2022-12-03T20:00:23.059Z,97856.00
2022-12-03T20:07:10.447Z,97851.00
2022-12-03T20:14:40.164Z,97841.00
2022-12-03T20:18:28.791Z,97851.00
2022-12-03T20:25:33.712Z,97847.00
2022-12-03T20:32:27.625Z,97853.00
2022-12-03T20:39:18.617Z,97821.00
2022-12-03T20:46:03.186Z,97848.00
2022-12-03T20:49:33.682Z,97832.00
2022-12-03T21:03:38.080Z,97828.00
2022-12-03T21:10:53.200Z,97806.00
2022-12-03T21:17:40.206Z,97826.00
2022-12-03T21:24:29.562Z,97841.00
2022-12-03T21:31:15.856Z,97816.00
2022-12-03T21:38:05.318Z,97821.00
2022-12-03T21:44:54.299Z,97822.00
2022-12-03T21:51:38.006Z,97801.00
2022-12-03T21:58:35.313Z,97822.00
2022-12-03T22:05:22.899Z,97812.00
2022-12-03T22:16:50.162Z,97802.00
2022-12-03T22:23:47.583Z,97795.00
2022-12-03T22:31:17.897Z,97807.00
2022-12-03T22:35:13.405Z,97806.00
2022-12-03T22:42:20.344Z,97789.00
2022-12-03T22:48:29.549Z,97803.00
2022-12-03T22:55:20.424Z,97759.00
2022-12-03T23:02:17.678Z,97787.00
2022-12-03T23:09:21.717Z,97756.00
2022-12-03T23:19:32.259Z,97752.00
2022-12-03T23:29:14.369Z,97737.00
2022-12-03T23:36:00.523Z,97762.00
2022-12-03T23:42:58.249Z,97739.00
2022-12-03T23:54:35.576Z,97738.00
2022-12-03T23:58:36.643Z,97765.00
